Time,TemperatureF,DewpointF,PressureIn,WindDirection,WindDirectionDegrees,WindSpeedMPH,WindSpeedGustMPH,Humidity,HourlyPrecipIn,Conditions,Clouds,dailyrainin,SoftwareType,DateUTC
2013-08-15 00:00:00,66.2,62.6,29.90,NE,45,0.0,0.0,88,0.00,,,0.00,meteohub,2013-08-15 07:00:00,
2013-08-15 00:05:00,66.2,62.6,29.90,NE,45,0.0,0.0,88,0.00,,,0.00,meteohub,2013-08-15 07:05:00,
2013-08-15 00:10:00,66.2,62.6,29.90,NE,45,0.0,0.0,88,0.00,,,0.00,meteohub,2013-08-15 07:10:00,
2013-08-15 00:15:00,66.2,62.6,29.90,NE,45,0.0,0.0,88,0.00,,,0.00,meteohub,2013-08-15 07:15:00,
2013-08-15 00:20:00,66.4,62.8,29.90,South,180,1.0,0.0,88,0.00,,,0.00,meteohub,2013-08-15 07:20:00,
2013-08-15 00:25:00,66.2,62.6,29.90,SW,225,2.0,2.0,88,0.00,,,0.00,meteohub,2013-08-15 07:25:00,
2013-08-15 00:31:00,66.2,62.2,29.89,South,180,0.0,2.0,87,0.00,,,0.00,meteohub,2013-08-15 07:31:00,
2013-08-15 00:36:00,66.0,62.1,29.90,South,180,0.0,2.0,87,0.00,,,0.00,meteohub,2013-08-15 07:36:00,
2013-08-15 00:41:00,65.8,61.9,29.90,South,180,0.0,2.0,87,0.00,,,0.00,meteohub,2013-08-15 07:41:00,
2013-08-15 00:46:00,65.8,61.9,29.90,South,180,0.0,0.0,87,0.00,,,0.00,meteohub,2013-08-15 07:46:00,
2013-08-15 00:51:00,65.7,61.7,29.90,South,180,0.0,0.0,87,0.00,,,0.00,meteohub,2013-08-15 07:51:00,
2013-08-15 00:56:00,65.7,61.7,29.89,South,180,0.0,0.0,87,0.00,,,0.00,meteohub,2013-08-15 07:56:00,
2013-08-15 01:01:00,65.7,61.7,29.89,South,180,0.0,0.0,87,0.00,,,0.00,meteohub,2013-08-15 08:01:00,
2013-08-15 01:06:00,65.7,61.7,29.89,South,180,0.0,0.0,87,0.00,,,0.00,meteohub,2013-08-15 08:06:00,
2013-08-15 01:11:00,65.5,61.5,29.89,South,180,0.0,0.0,87,0.00,,,0.00,meteohub,2013-08-15 08:11:00,
2013-08-15 01:16:00,65.5,61.5,29.89,South,180,0.0,0.0,87,0.00,,,0.00,meteohub,2013-08-15 08:16:00,
2013-08-15 01:21:00,65.5,61.5,29.89,South,180,0.0,0.0,87,0.00,,,0.00,meteohub,2013-08-15 08:21:00,
2013-08-15 01:26:00,65.5,61.5,29.89,NE,45,0.0,1.0,87,0.00,,,0.00,meteohub,2013-08-15 08:26:00,
2013-08-15 01:31:00,65.5,61.5,29.89,NE,45,0.0,1.0,87,0.00,,,0.00,meteohub,2013-08-15 08:31:00,
2013-08-15 01:36:00,65.3,61.3,29.89,NE,45,0.0,1.0,87,0.00,,,0.00,meteohub,2013-08-15 08:36:00,
2013-08-15 01:41:00,65.1,61.2,29.89,NE,45,0.0,1.0,87,0.00,,,0.00,meteohub,2013-08-15 08:41:00,
2013-08-15 01:46:00,64.9,61.0,29.88,NE,45,0.0,0.0,87,0.00,,,0.00,meteohub,2013-08-15 08:46:00,
2013-08-15 01:51:00,64.8,61.2,29.88,NE,45,0.0,0.0,88,0.00,,,0.00,meteohub,2013-08-15 08:51:00,
2013-08-15 01:56:00,64.8,61.2,29.89,NE,45,0.0,0.0,88,0.00,,,0.00,meteohub,2013-08-15 08:56:00,
2013-08-15 02:01:00,64.6,61.0,29.89,NE,45,0.0,0.0,88,0.00,,,0.00,meteohub,2013-08-15 09:01:00,
2013-08-15 02:06:00,64.6,61.0,29.89,NE,45,0.0,0.0,88,0.00,,,0.00,meteohub,2013-08-15 09:06:00,
2013-08-15 02:11:00,64.6,61.3,29.88,NE,45,0.0,0.0,89,0.00,,,0.00,meteohub,2013-08-15 09:11:00,
2013-08-15 02:16:00,64.6,61.3,29.89,NE,45,0.0,0.0,89,0.00,,,0.00,meteohub,2013-08-15 09:16:00,
2013-08-15 02:21:00,64.6,61.3,29.89,NE,45,0.0,0.0,89,0.00,,,0.00,meteohub,2013-08-15 09:21:00,
2013-08-15 02:26:00,64.6,61.3,29.89,NE,45,0.0,0.0,89,0.00,,,0.00,meteohub,2013-08-15 09:26:00,
2013-08-15 02:32:00,64.6,61.3,29.89,NE,45,0.0,0.0,89,0.00,,,0.00,meteohub,2013-08-15 09:32:00,
2013-08-15 02:37:00,64.8,61.5,29.88,South,180,0.0,2.0,89,0.00,,,0.00,meteohub,2013-08-15 09:37:00,
2013-08-15 02:42:00,64.6,61.5,29.88,NE,45,2.0,2.0,90,0.00,,,0.00,meteohub,2013-08-15 09:42:00,
2013-08-15 02:47:00,64.8,61.7,29.88,NE,45,0.0,2.0,90,0.00,,,0.00,meteohub,2013-08-15 09:47:00,
2013-08-15 02:52:00,64.8,61.7,29.88,NE,45,0.0,2.0,90,0.00,,,0.00,meteohub,2013-08-15 09:52:00,
2013-08-15 02:57:00,64.8,61.5,29.88,NE,45,0.0,2.0,89,0.00,,,0.00,meteohub,2013-08-15 09:57:00,
2013-08-15 03:03:00,64.9,61.7,29.89,NE,45,0.0,0.0,89,0.00,,,0.00,meteohub,2013-08-15 10:03:00,
2013-08-15 03:09:00,64.9,61.9,29.88,NE,45,4.0,0.0,90,0.00,,,0.00,meteohub,2013-08-15 10:09:00,
2013-08-15 03:14:00,65.1,62.1,29.88,SW,225,2.0,2.0,90,0.00,,,0.00,meteohub,2013-08-15 10:14:00,
2013-08-15 03:19:00,65.5,62.2,29.89,SW,225,0.0,4.0,89,0.00,,,0.00,meteohub,2013-08-15 10:19:00,
2013-08-15 03:24:00,65.5,62.2,29.88,South,180,0.0,4.0,89,0.00,,,0.00,meteohub,2013-08-15 10:24:00,
2013-08-15 03:29:00,65.5,61.9,29.88,South,180,0.0,4.0,88,0.00,,,0.00,meteohub,2013-08-15 10:29:00,
2013-08-15 03:34:00,65.5,61.9,29.88,NE,45,0.0,2.0,88,0.00,,,0.00,meteohub,2013-08-15 10:34:00,
2013-08-15 03:39:00,65.5,61.9,29.88,NE,45,0.0,2.0,88,0.00,,,0.00,meteohub,2013-08-15 10:39:00,
2013-08-15 03:44:00,65.5,61.9,29.88,NE,45,0.0,0.0,88,0.00,,,0.00,meteohub,2013-08-15 10:44:00,
2013-08-15 03:49:00,65.3,61.7,29.89,NE,45,0.0,0.0,88,0.00,,,0.00,meteohub,2013-08-15 10:49:00,
2013-08-15 03:54:00,65.3,61.7,29.89,NE,45,0.0,0.0,88,0.00,,,0.00,meteohub,2013-08-15 10:54:00,
2013-08-15 03:59:00,65.3,62.1,29.89,NE,45,0.0,0.0,89,0.00,,,0.00,meteohub,2013-08-15 10:59:00,
2013-08-15 04:04:00,65.3,62.1,29.89,NE,45,0.0,0.0,89,0.01,,,0.01,meteohub,2013-08-15 11:04:00,
2013-08-15 04:10:00,65.1,61.9,29.89,NE,45,0.0,0.0,89,0.01,,,0.01,meteohub,2013-08-15 11:10:00,
2013-08-15 04:14:00,65.1,61.9,29.89,NE,45,0.0,0.0,89,0.01,,,0.01,meteohub,2013-08-15 11:14:00,
2013-08-15 04:20:00,65.1,62.1,29.88,NE,45,0.0,0.0,90,0.01,,,0.01,meteohub,2013-08-15 11:20:00,
2013-08-15 04:25:00,65.3,62.2,29.88,NE,45,0.0,0.0,90,0.01,,,0.01,meteohub,2013-08-15 11:25:00,
2013-08-15 04:30:00,65.1,62.1,29.88,NE,45,0.0,0.0,90,0.01,,,0.01,meteohub,2013-08-15 11:30:00,
2013-08-15 04:35:00,65.1,62.1,29.88,NE,45,0.0,0.0,90,0.01,,,0.01,meteohub,2013-08-15 11:35:00,
2013-08-15 04:40:00,65.3,62.2,29.88,NE,45,0.0,0.0,90,0.01,,,0.01,meteohub,2013-08-15 11:40:00,
2013-08-15 04:45:00,65.3,62.2,29.88,NE,45,0.0,0.0,90,0.01,,,0.01,meteohub,2013-08-15 11:45:00,
2013-08-15 04:50:00,65.3,62.2,29.87,NE,45,0.0,0.0,90,0.01,,,0.01,meteohub,2013-08-15 11:50:00,
2013-08-15 04:55:00,65.1,62.1,29.88,NE,45,0.0,0.0,90,0.01,,,0.01,meteohub,2013-08-15 11:55:00,
2013-08-15 05:00:00,65.1,62.1,29.88,NE,45,0.0,0.0,90,0.00,,,0.01,meteohub,2013-08-15 12:00:00,
2013-08-15 05:05:00,65.1,62.1,29.88,NE,45,0.0,0.0,90,0.00,,,0.01,meteohub,2013-08-15 12:05:00,
2013-08-15 05:10:00,65.1,62.4,29.88,NE,45,0.0,0.0,91,0.00,,,0.01,meteohub,2013-08-15 12:10:00,
2013-08-15 05:16:00,65.3,62.6,29.88,NE,45,0.0,0.0,91,0.00,,,0.01,meteohub,2013-08-15 12:16:00,
2013-08-15 05:21:00,65.3,62.6,29.88,NE,45,0.0,0.0,91,0.00,,,0.01,meteohub,2013-08-15 12:21:00,
2013-08-15 05:26:00,65.3,62.6,29.88,NE,45,0.0,0.0,91,0.00,,,0.01,meteohub,2013-08-15 12:26:00,
2013-08-15 05:31:00,65.1,62.4,29.89,NE,45,0.0,0.0,91,0.00,,,0.01,meteohub,2013-08-15 12:31:00,
2013-08-15 05:36:00,65.1,62.4,29.89,NE,45,0.0,0.0,91,0.00,,,0.01,meteohub,2013-08-15 12:36:00,
2013-08-15 05:41:00,65.1,62.4,29.88,NE,45,0.0,0.0,91,0.00,,,0.01,meteohub,2013-08-15 12:41:00,
2013-08-15 05:46:00,65.1,62.4,29.89,NE,45,0.0,0.0,91,0.00,,,0.01,meteohub,2013-08-15 12:46:00,
2013-08-15 05:51:00,65.3,62.6,29.88,NE,45,0.0,1.0,91,0.00,,,0.01,meteohub,2013-08-15 12:51:00,
2013-08-15 05:56:00,65.1,62.4,29.88,NE,45,0.0,1.0,91,0.00,,,0.01,meteohub,2013-08-15 12:56:00,
2013-08-15 06:01:00,65.1,62.4,29.89,NE,45,0.0,1.0,91,0.00,,,0.01,meteohub,2013-08-15 13:01:00,
2013-08-15 06:06:00,65.3,62.6,29.89,NE,45,0.0,0.0,91,0.00,,,0.01,meteohub,2013-08-15 13:06:00,
2013-08-15 06:11:00,65.3,62.6,29.89,NE,45,0.0,0.0,91,0.00,,,0.01,meteohub,2013-08-15 13:11:00,
2013-08-15 06:16:00,65.3,62.6,29.89,NE,45,0.0,0.0,91,0.00,,,0.01,meteohub,2013-08-15 13:16:00,
2013-08-15 06:17:00,65.3,62.6,29.89,NE,45,0.0,0.0,91,0.00,,,0.01,meteohub,2013-08-15 13:17:00,
2013-08-15 06:22:00,65.3,62.6,29.88,NE,45,0.0,0.0,91,0.00,,,0.01,meteohub,2013-08-15 13:22:00,
2013-08-15 06:27:00,65.3,62.6,29.89,NE,45,0.0,0.0,91,0.00,,,0.01,meteohub,2013-08-15 13:27:00,
2013-08-15 06:32:00,65.5,62.8,29.89,NE,45,0.0,0.0,91,0.00,,,0.01,meteohub,2013-08-15 13:32:00,
2013-08-15 06:37:00,65.5,62.8,29.89,NE,45,0.0,0.0,91,0.00,,,0.01,meteohub,2013-08-15 13:37:00,
2013-08-15 06:42:00,65.7,63.0,29.90,NE,45,0.0,0.0,91,0.00,,,0.01,meteohub,2013-08-15 13:42:00,
2013-08-15 06:48:00,65.7,63.0,29.89,NE,45,0.0,0.0,91,0.00,,,0.01,meteohub,2013-08-15 13:48:00,
2013-08-15 06:53:00,65.8,62.8,29.89,NE,45,0.0,0.0,90,0.00,,,0.01,meteohub,2013-08-15 13:53:00,
2013-08-15 06:58:00,66.0,63.0,29.90,South,180,0.0,0.0,90,0.00,,,0.01,meteohub,2013-08-15 13:58:00,
2013-08-15 07:03:00,66.2,63.1,29.90,South,180,0.0,0.0,90,0.00,,,0.01,meteohub,2013-08-15 14:03:00,
2013-08-15 07:08:00,66.2,63.1,29.90,South,180,0.0,0.0,90,0.00,,,0.01,meteohub,2013-08-15 14:08:00,
2013-08-15 07:13:00,66.4,63.3,29.90,NE,45,0.0,0.0,90,0.00,,,0.01,meteohub,2013-08-15 14:13:00,
2013-08-15 07:18:00,66.4,63.3,29.89,NE,45,0.0,0.0,90,0.00,,,0.01,meteohub,2013-08-15 14:18:00,
2013-08-15 07:23:00,66.6,63.5,29.90,South,180,0.0,0.0,90,0.00,,,0.01,meteohub,2013-08-15 14:23:00,
2013-08-15 07:28:00,66.7,63.7,29.90,South,180,0.0,0.0,90,0.00,,,0.01,meteohub,2013-08-15 14:28:00,
2013-08-15 07:33:00,66.9,63.9,29.90,South,180,0.0,0.0,90,0.00,,,0.01,meteohub,2013-08-15 14:33:00,
2013-08-15 07:38:00,67.1,64.0,29.90,South,180,0.0,0.0,90,0.00,,,0.01,meteohub,2013-08-15 14:38:00,
2013-08-15 07:43:00,67.3,63.9,29.90,SW,225,2.0,0.0,89,0.00,,,0.01,meteohub,2013-08-15 14:43:00,
2013-08-15 07:48:00,67.5,64.0,29.90,SW,225,0.0,2.0,89,0.00,,,0.01,meteohub,2013-08-15 14:48:00,
2013-08-15 07:54:00,67.8,64.4,29.90,SE,135,1.0,2.0,89,0.00,,,0.01,meteohub,2013-08-15 14:54:00,
2013-08-15 07:59:00,68.2,64.4,29.91,SW,225,2.0,3.0,88,0.00,,,0.01,meteohub,2013-08-15 14:59:00,
2013-08-15 08:04:00,68.7,64.8,29.90,SW,225,2.0,3.0,87,0.00,,,0.01,meteohub,2013-08-15 15:04:00,
2013-08-15 08:09:00,69.1,64.8,29.91,South,180,2.0,3.0,86,0.00,,,0.01,meteohub,2013-08-15 15:09:00,
2013-08-15 08:14:00,69.4,64.8,29.91,South,180,2.0,3.0,85,0.00,,,0.01,meteohub,2013-08-15 15:14:00,
2013-08-15 08:19:00,69.8,64.8,29.90,SW,225,2.0,3.0,84,0.00,,,0.01,meteohub,2013-08-15 15:19:00,
2013-08-15 08:24:00,70.5,65.1,29.90,SE,135,2.0,4.0,83,0.00,,,0.01,meteohub,2013-08-15 15:24:00,
2013-08-15 08:29:00,71.8,66.0,29.90,South,180,2.0,4.0,82,0.00,,,0.01,meteohub,2013-08-15 15:29:00,
2013-08-15 08:35:00,72.9,66.0,29.90,SW,225,2.0,4.0,79,0.00,,,0.01,meteohub,2013-08-15 15:35:00,
2013-08-15 08:40:00,73.6,65.5,29.90,South,180,4.0,4.0,76,0.00,,,0.01,meteohub,2013-08-15 15:40:00,
2013-08-15 08:45:00,74.7,65.5,29.91,South,180,2.0,3.0,73,0.00,,,0.01,meteohub,2013-08-15 15:45:00,
2013-08-15 08:50:00,74.8,65.1,29.91,South,180,2.0,4.0,72,0.00,,,0.01,meteohub,2013-08-15 15:50:00,
2013-08-15 08:55:00,74.7,65.1,29.91,SW,225,2.0,4.0,72,0.00,,,0.01,meteohub,2013-08-15 15:55:00,
2013-08-15 09:00:00,74.3,64.8,29.91,South,180,2.0,3.0,72,0.00,,,0.01,meteohub,2013-08-15 16:00:00,
2013-08-15 09:05:00,73.9,64.4,29.91,SW,225,4.0,4.0,72,0.00,,,0.01,meteohub,2013-08-15 16:05:00,
2013-08-15 09:10:00,73.0,63.5,29.91,SW,225,2.0,4.0,72,0.00,,,0.01,meteohub,2013-08-15 16:10:00,
2013-08-15 09:16:00,72.7,63.5,29.91,SE,135,2.0,4.0,73,0.00,,,0.01,meteohub,2013-08-15 16:16:00,
2013-08-15 09:19:00,72.3,63.1,29.91,East,90,1.0,4.0,73,0.00,,,0.01,meteohub,2013-08-15 16:19:00,
2013-08-15 09:22:00,72.3,63.1,29.91,SE,135,1.0,4.0,73,0.00,,,0.01,meteohub,2013-08-15 16:22:00,
2013-08-15 09:32:00,71.8,63.0,29.91,SE,135,2.0,3.0,74,0.00,,,0.01,meteohub,2013-08-15 16:32:00,
2013-08-15 09:37:00,71.8,63.5,29.91,SE,135,2.0,2.0,75,0.00,,,0.01,meteohub,2013-08-15 16:37:00,
2013-08-15 09:42:00,71.8,63.9,29.91,SE,135,5.0,5.0,76,0.00,,,0.01,meteohub,2013-08-15 16:42:00,
2013-08-15 09:47:00,72.0,64.0,29.91,NE,45,4.0,6.0,76,0.00,,,0.01,meteohub,2013-08-15 16:47:00,
2013-08-15 09:52:00,72.0,63.7,29.91,NE,45,2.0,6.0,75,0.00,,,0.01,meteohub,2013-08-15 16:52:00,
2013-08-15 09:57:00,72.1,64.2,29.91,SW,225,2.0,6.0,76,0.00,,,0.01,meteohub,2013-08-15 16:57:00,
2013-08-15 10:02:00,72.3,64.4,29.91,SE,135,1.0,4.0,76,0.00,,,0.01,meteohub,2013-08-15 17:02:00,
2013-08-15 10:07:00,72.3,63.9,29.91,South,180,3.0,3.0,75,0.00,,,0.01,meteohub,2013-08-15 17:07:00,
2013-08-15 10:12:00,72.5,64.0,29.91,NE,45,1.0,4.0,75,0.00,,,0.01,meteohub,2013-08-15 17:12:00,
2013-08-15 10:17:00,72.9,64.0,29.92,SW,225,3.0,6.0,74,0.00,,,0.01,meteohub,2013-08-15 17:17:00,
2013-08-15 10:22:00,73.0,64.2,29.92,SW,225,4.0,6.0,74,0.00,,,0.01,meteohub,2013-08-15 17:22:00,
2013-08-15 10:27:00,73.2,64.4,29.91,SE,135,2.0,6.0,74,0.00,,,0.01,meteohub,2013-08-15 17:27:00,
2013-08-15 10:32:00,73.2,64.0,29.91,SW,225,2.0,4.0,73,0.00,,,0.01,meteohub,2013-08-15 17:32:00,
2013-08-15 10:37:00,73.8,64.2,29.92,SW,225,7.0,8.0,72,0.00,,,0.01,meteohub,2013-08-15 17:37:00,
2013-08-15 10:42:00,73.9,64.4,29.92,SE,135,2.0,8.0,72,0.00,,,0.01,meteohub,2013-08-15 17:42:00,
2013-08-15 10:47:00,73.8,64.6,29.92,South,180,6.0,8.0,73,0.00,,,0.01,meteohub,2013-08-15 17:47:00,
2013-08-15 10:48:00,73.8,64.6,29.92,SW,225,4.0,8.0,73,0.00,,,0.01,meteohub,2013-08-15 17:48:00,
2013-08-15 10:53:00,73.6,64.4,29.92,NW,315,3.0,7.0,73,0.00,,,0.01,meteohub,2013-08-15 17:53:00,
2013-08-15 11:02:00,72.7,64.2,29.93,South,180,8.0,8.0,75,0.00,,,0.01,meteohub,2013-08-15 18:02:00,
2013-08-15 11:07:00,72.1,64.2,29.92,SW,225,4.0,8.0,76,0.00,,,0.01,meteohub,2013-08-15 18:07:00,
2013-08-15 11:12:00,71.8,64.2,29.93,South,180,3.0,8.0,77,0.00,,,0.01,meteohub,2013-08-15 18:12:00,
2013-08-15 11:17:00,71.8,64.6,29.93,SW,225,2.0,8.0,78,0.00,,,0.01,meteohub,2013-08-15 18:17:00,
2013-08-15 11:22:00,72.3,65.5,29.93,SW,225,4.0,7.0,79,0.00,,,0.01,meteohub,2013-08-15 18:22:00,
2013-08-15 11:27:00,72.9,65.7,29.92,South,180,2.0,4.0,78,0.00,,,0.01,meteohub,2013-08-15 18:27:00,
2013-08-15 11:32:00,73.0,65.5,29.93,SE,135,4.0,4.0,77,0.00,,,0.01,meteohub,2013-08-15 18:32:00,
2013-08-15 11:37:00,73.4,65.7,29.93,SW,225,3.0,4.0,77,0.00,,,0.01,meteohub,2013-08-15 18:37:00,
2013-08-15 11:42:00,73.6,65.5,29.93,SW,225,3.0,4.0,76,0.00,,,0.01,meteohub,2013-08-15 18:42:00,
2013-08-15 11:47:00,74.1,65.7,29.93,East,90,2.0,4.0,75,0.00,,,0.01,meteohub,2013-08-15 18:47:00,
2013-08-15 11:52:00,73.8,65.3,29.93,SE,135,2.0,4.0,75,0.00,,,0.01,meteohub,2013-08-15 18:52:00,
2013-08-15 11:54:00,73.6,65.1,29.93,East,90,1.0,4.0,75,0.00,,,0.01,meteohub,2013-08-15 18:54:00,
2013-08-15 12:02:00,73.0,64.6,29.93,East,90,0.0,4.0,75,0.00,,,0.01,meteohub,2013-08-15 19:02:00,
2013-08-15 12:10:00,72.3,64.4,29.92,SW,225,2.0,4.0,76,0.00,,,0.01,meteohub,2013-08-15 19:10:00,
2013-08-15 12:15:00,72.3,64.8,29.92,West,270,3.0,4.0,77,0.00,,,0.01,meteohub,2013-08-15 19:15:00,
2013-08-15 12:20:00,72.0,64.8,29.92,SW,225,3.0,4.0,78,0.00,,,0.01,meteohub,2013-08-15 19:20:00,
2013-08-15 12:25:00,71.6,64.4,29.93,South,180,4.0,4.0,78,0.00,,,0.01,meteohub,2013-08-15 19:25:00,
2013-08-15 12:32:00,71.4,64.6,29.93,South,180,4.0,4.0,79,0.00,,,0.01,meteohub,2013-08-15 19:32:00,
2013-08-15 12:37:00,71.1,64.6,29.93,South,180,3.0,4.0,80,0.00,,,0.01,meteohub,2013-08-15 19:37:00,
2013-08-15 12:42:00,70.9,64.8,29.92,South,180,2.0,4.0,81,0.00,,,0.01,meteohub,2013-08-15 19:42:00,
2013-08-15 12:47:00,71.1,64.9,29.93,NE,45,3.0,5.0,81,0.00,,,0.01,meteohub,2013-08-15 19:47:00,
2013-08-15 12:52:00,71.2,65.1,29.93,East,90,4.0,5.0,81,0.00,,,0.01,meteohub,2013-08-15 19:52:00,
2013-08-15 12:57:00,71.2,65.1,29.92,SW,225,2.0,5.0,81,0.00,,,0.01,meteohub,2013-08-15 19:57:00,
2013-08-15 13:02:00,71.4,65.3,29.92,South,180,4.0,4.0,81,0.00,,,0.01,meteohub,2013-08-15 20:02:00,
2013-08-15 13:07:00,72.0,65.8,29.92,SE,135,0.0,4.0,81,0.00,,,0.01,meteohub,2013-08-15 20:07:00,
2013-08-15 13:12:00,72.5,66.0,29.93,SE,135,1.0,4.0,80,0.00,,,0.01,meteohub,2013-08-15 20:12:00,
2013-08-15 13:18:00,73.0,66.2,29.92,SW,225,3.0,4.0,79,0.00,,,0.01,meteohub,2013-08-15 20:18:00,
2013-08-15 13:23:00,73.6,66.4,29.92,South,180,2.0,4.0,78,0.00,,,0.01,meteohub,2013-08-15 20:23:00,
2013-08-15 13:28:00,74.3,65.8,29.92,East,90,2.0,4.0,75,0.00,,,0.01,meteohub,2013-08-15 20:28:00,
2013-08-15 13:33:00,74.3,65.8,29.93,SE,135,1.0,4.0,75,0.00,,,0.01,meteohub,2013-08-15 20:33:00,
2013-08-15 13:38:00,74.5,66.0,29.93,South,180,2.0,4.0,75,0.00,,,0.01,meteohub,2013-08-15 20:38:00,
2013-08-15 13:43:00,74.3,66.2,29.94,South,180,2.0,4.0,76,0.00,,,0.01,meteohub,2013-08-15 20:43:00,
2013-08-15 13:48:00,73.9,65.5,29.94,South,180,2.0,4.0,75,0.00,,,0.01,meteohub,2013-08-15 20:48:00,
2013-08-15 13:53:00,73.8,65.7,29.93,South,180,2.0,4.0,76,0.00,,,0.01,meteohub,2013-08-15 20:53:00,
2013-08-15 13:58:00,73.4,65.3,29.93,SE,135,1.0,4.0,76,0.00,,,0.01,meteohub,2013-08-15 20:58:00,
2013-08-15 14:02:00,73.2,65.7,29.94,SE,135,1.0,4.0,77,0.00,,,0.01,meteohub,2013-08-15 21:02:00,
2013-08-15 14:03:00,72.9,65.3,29.94,South,180,2.0,4.0,77,0.00,,,0.01,meteohub,2013-08-15 21:03:00,
2013-08-15 14:08:00,72.5,65.3,29.94,South,180,2.0,5.0,78,0.00,,,0.01,meteohub,2013-08-15 21:08:00,
2013-08-15 14:14:00,72.1,64.9,29.94,SW,225,2.0,5.0,78,0.00,,,0.01,meteohub,2013-08-15 21:14:00,
2013-08-15 14:19:00,72.0,64.8,29.93,South,180,2.0,5.0,78,0.00,,,0.01,meteohub,2013-08-15 21:19:00,
2013-08-15 14:24:00,71.6,65.1,29.94,SE,135,1.0,3.0,80,0.00,,,0.01,meteohub,2013-08-15 21:24:00,
2013-08-15 14:29:00,71.4,64.9,29.94,East,90,2.0,3.0,80,0.00,,,0.01,meteohub,2013-08-15 21:29:00,
2013-08-15 14:34:00,71.2,65.1,29.94,SE,135,1.0,2.0,81,0.00,,,0.01,meteohub,2013-08-15 21:34:00,
2013-08-15 14:40:00,70.9,64.8,29.94,East,90,0.0,2.0,81,0.00,,,0.01,meteohub,2013-08-15 21:40:00,
2013-08-15 14:45:00,70.3,64.6,29.94,SE,135,1.0,2.0,82,0.00,,,0.01,meteohub,2013-08-15 21:45:00,
2013-08-15 14:50:00,70.3,64.9,29.94,SW,225,3.0,3.0,83,0.01,,,0.02,meteohub,2013-08-15 21:50:00,
2013-08-15 14:55:00,70.3,65.3,29.95,SW,225,2.0,3.0,84,0.01,,,0.02,meteohub,2013-08-15 21:55:00,
2013-08-15 15:00:00,70.3,65.7,29.95,SE,135,1.0,3.0,85,0.01,,,0.02,meteohub,2013-08-15 22:00:00,
2013-08-15 15:05:00,70.3,65.7,29.95,West,270,1.0,3.0,85,0.01,,,0.02,meteohub,2013-08-15 22:05:00,
2013-08-15 15:10:00,70.5,65.8,29.96,South,180,1.0,2.0,85,0.01,,,0.02,meteohub,2013-08-15 22:10:00,
2013-08-15 15:15:00,70.7,66.0,29.95,South,180,0.0,4.0,85,0.01,,,0.02,meteohub,2013-08-15 22:15:00,
2013-08-15 15:20:00,70.9,66.2,29.95,East,90,2.0,4.0,85,0.01,,,0.02,meteohub,2013-08-15 22:20:00,
2013-08-15 15:25:00,70.7,66.0,29.93,North,0,2.0,4.0,85,0.01,,,0.02,meteohub,2013-08-15 22:25:00,
2013-08-15 15:30:00,70.3,65.7,29.93,NE,45,2.0,4.0,85,0.01,,,0.02,meteohub,2013-08-15 22:30:00,
2013-08-15 15:35:00,70.0,65.3,29.94,SE,135,1.0,4.0,85,0.01,,,0.02,meteohub,2013-08-15 22:35:00,
2013-08-15 15:41:00,69.8,65.5,29.92,East,90,2.0,4.0,86,0.01,,,0.02,meteohub,2013-08-15 22:41:00,
2013-08-15 15:46:00,70.0,65.7,29.94,SW,225,2.0,2.0,86,0.01,,,0.02,meteohub,2013-08-15 22:46:00,
2013-08-15 15:51:00,70.3,66.0,29.94,SE,135,0.0,3.0,86,0.00,,,0.02,meteohub,2013-08-15 22:51:00,
2013-08-15 15:56:00,70.5,66.2,29.93,North,0,2.0,3.0,86,0.00,,,0.02,meteohub,2013-08-15 22:56:00,
2013-08-15 16:01:00,70.9,66.6,29.94,East,90,1.0,3.0,86,0.00,,,0.02,meteohub,2013-08-15 23:01:00,
2013-08-15 16:06:00,71.2,66.6,29.95,SW,225,2.0,2.0,85,0.00,,,0.02,meteohub,2013-08-15 23:06:00,
2013-08-15 16:11:00,71.4,66.7,29.95,SW,225,4.0,4.0,85,0.00,,,0.02,meteohub,2013-08-15 23:11:00,
2013-08-15 16:16:00,71.4,66.4,29.94,South,180,2.0,5.0,84,0.00,,,0.02,meteohub,2013-08-15 23:16:00,
2013-08-15 16:21:00,71.1,66.0,29.94,NE,45,0.0,5.0,84,0.00,,,0.02,meteohub,2013-08-15 23:21:00,
2013-08-15 16:26:00,70.9,66.2,29.94,ESE,113,1.0,5.0,85,0.00,,,0.02,meteohub,2013-08-15 23:26:00,
2013-08-15 16:32:00,70.7,66.0,29.94,SE,135,1.0,3.0,85,0.00,,,0.02,meteohub,2013-08-15 23:32:00,
2013-08-15 16:37:00,70.3,65.7,29.93,SE,135,0.0,2.0,85,0.01,,,0.04,meteohub,2013-08-15 23:37:00,
2013-08-15 16:42:00,70.3,66.0,29.93,East,90,0.0,2.0,86,0.01,,,0.04,meteohub,2013-08-15 23:42:00,
2013-08-15 16:47:00,70.3,66.2,29.93,South,180,2.0,2.0,87,0.01,,,0.04,meteohub,2013-08-15 23:47:00,
2013-08-15 16:52:00,70.5,66.4,29.94,SW,225,0.0,4.0,87,0.01,,,0.04,meteohub,2013-08-15 23:52:00,
2013-08-15 16:57:00,70.5,66.4,29.94,SW,225,2.0,4.0,87,0.01,,,0.04,meteohub,2013-08-15 23:57:00,
2013-08-15 17:02:00,70.5,66.4,29.93,SW,225,3.0,4.0,87,0.01,,,0.04,meteohub,2013-08-16 00:02:00,
2013-08-15 17:07:00,70.9,66.6,29.93,East,90,1.0,3.0,86,0.01,,,0.04,meteohub,2013-08-16 00:07:00,
2013-08-15 17:12:00,71.2,66.9,29.94,South,180,5.0,5.0,86,0.01,,,0.04,meteohub,2013-08-16 00:12:00,
2013-08-15 17:18:00,71.4,66.7,29.94,West,270,1.0,5.0,85,0.01,,,0.04,meteohub,2013-08-16 00:18:00,
2013-08-15 17:23:00,71.4,66.7,29.94,SW,225,1.0,5.0,85,0.01,,,0.04,meteohub,2013-08-16 00:23:00,
2013-08-15 17:28:00,71.6,66.6,29.94,SW,225,2.0,5.0,84,0.01,,,0.04,meteohub,2013-08-16 00:28:00,
2013-08-15 17:33:00,71.4,66.4,29.94,SW,225,3.0,4.0,84,0.01,,,0.04,meteohub,2013-08-16 00:33:00,
2013-08-15 17:38:00,71.4,66.4,29.94,SW,225,1.0,4.0,84,0.00,,,0.04,meteohub,2013-08-16 00:38:00,
2013-08-15 17:43:00,70.9,65.5,29.93,SW,225,0.0,4.0,83,0.00,,,0.04,meteohub,2013-08-16 00:43:00,
2013-08-15 17:48:00,70.7,65.7,29.93,SW,225,0.0,3.0,84,0.00,,,0.04,meteohub,2013-08-16 00:48:00,
2013-08-15 17:53:00,70.5,65.5,29.92,NE,45,0.0,2.0,84,0.00,,,0.04,meteohub,2013-08-16 00:53:00,
2013-08-15 17:58:00,70.3,65.3,29.92,NE,45,0.0,2.0,84,0.00,,,0.04,meteohub,2013-08-16 00:58:00,
2013-08-15 18:03:00,70.2,65.5,29.93,SW,225,2.0,2.0,85,0.00,,,0.04,meteohub,2013-08-16 01:03:00,
2013-08-15 18:08:00,70.3,65.7,29.93,SW,225,0.0,2.0,85,0.00,,,0.04,meteohub,2013-08-16 01:08:00,
2013-08-15 18:14:00,70.2,65.5,29.93,SW,225,0.0,2.0,85,0.00,,,0.04,meteohub,2013-08-16 01:14:00,
2013-08-15 18:19:00,70.0,64.9,29.93,South,180,0.0,2.0,84,0.00,,,0.04,meteohub,2013-08-16 01:19:00,
2013-08-15 18:24:00,69.6,64.6,29.93,South,180,0.0,2.0,84,0.00,,,0.04,meteohub,2013-08-16 01:24:00,
2013-08-15 18:29:00,69.4,64.4,29.93,South,180,0.0,1.0,84,0.00,,,0.04,meteohub,2013-08-16 01:29:00,
2013-08-15 18:32:00,69.3,64.2,29.92,South,180,0.0,1.0,84,0.00,,,0.04,meteohub,2013-08-16 01:32:00,
2013-08-15 18:37:00,69.1,64.0,29.92,South,180,0.0,1.0,84,0.00,,,0.04,meteohub,2013-08-16 01:37:00,
2013-08-15 18:47:00,69.1,64.4,29.92,West,270,0.0,0.0,85,0.00,,,0.04,meteohub,2013-08-16 01:47:00,
2013-08-15 18:52:00,68.9,64.2,29.91,West,270,0.0,0.0,85,0.00,,,0.04,meteohub,2013-08-16 01:52:00,
2013-08-15 18:57:00,68.9,64.2,29.91,West,270,0.0,0.0,85,0.00,,,0.04,meteohub,2013-08-16 01:57:00,
2013-08-15 19:02:00,68.9,64.2,29.92,West,270,0.0,0.0,85,0.00,,,0.04,meteohub,2013-08-16 02:02:00,
2013-08-15 19:07:00,68.7,64.0,29.91,West,270,0.0,0.0,85,0.00,,,0.04,meteohub,2013-08-16 02:07:00,
2013-08-15 19:12:00,68.7,64.4,29.91,West,270,0.0,0.0,86,0.00,,,0.04,meteohub,2013-08-16 02:12:00,
2013-08-15 19:17:00,68.5,64.2,29.92,West,270,0.0,0.0,86,0.00,,,0.04,meteohub,2013-08-16 02:17:00,
2013-08-15 19:22:00,68.5,64.2,29.92,West,270,0.0,0.0,86,0.00,,,0.04,meteohub,2013-08-16 02:22:00,
2013-08-15 19:27:00,68.4,64.0,29.92,West,270,0.0,0.0,86,0.00,,,0.04,meteohub,2013-08-16 02:27:00,
2013-08-15 19:32:00,68.4,64.0,29.92,West,270,0.0,0.0,86,0.00,,,0.04,meteohub,2013-08-16 02:32:00,
2013-08-15 19:37:00,68.5,64.2,29.92,West,270,0.0,0.0,86,0.00,,,0.04,meteohub,2013-08-16 02:37:00,
2013-08-15 19:42:00,68.5,64.2,29.92,West,270,0.0,0.0,86,0.00,,,0.04,meteohub,2013-08-16 02:42:00,
2013-08-15 19:47:00,68.7,64.4,29.92,West,270,0.0,0.0,86,0.00,,,0.04,meteohub,2013-08-16 02:47:00,
2013-08-15 19:52:00,68.7,64.0,29.92,West,270,0.0,0.0,85,0.00,,,0.04,meteohub,2013-08-16 02:52:00,
2013-08-15 19:57:00,68.5,63.9,29.92,West,270,0.0,0.0,85,0.00,,,0.04,meteohub,2013-08-16 02:57:00,
2013-08-15 20:02:00,68.5,63.9,29.92,West,270,0.0,0.0,85,0.00,,,0.04,meteohub,2013-08-16 03:02:00,
2013-08-15 20:07:00,68.5,63.9,29.92,West,270,0.0,0.0,85,0.00,,,0.04,meteohub,2013-08-16 03:07:00,
2013-08-15 20:12:00,68.4,63.7,29.92,West,270,0.0,0.0,85,0.00,,,0.04,meteohub,2013-08-16 03:12:00,
2013-08-15 20:18:00,68.2,63.5,29.93,West,270,0.0,0.0,85,0.00,,,0.04,meteohub,2013-08-16 03:18:00,
2013-08-15 20:23:00,68.2,63.5,29.93,West,270,0.0,1.0,85,0.00,,,0.04,meteohub,2013-08-16 03:23:00,
2013-08-15 20:28:00,68.0,63.3,29.92,West,270,0.0,1.0,85,0.00,,,0.04,meteohub,2013-08-16 03:28:00,
2013-08-15 20:33:00,67.8,63.5,29.93,West,270,0.0,0.0,86,0.00,,,0.04,meteohub,2013-08-16 03:33:00,
2013-08-15 20:38:00,67.6,63.3,29.93,West,270,0.0,0.0,86,0.00,,,0.04,meteohub,2013-08-16 03:38:00,
2013-08-15 20:43:00,67.6,63.3,29.93,West,270,0.0,0.0,86,0.00,,,0.04,meteohub,2013-08-16 03:43:00,
2013-08-15 20:48:00,67.5,63.1,29.93,West,270,0.0,0.0,86,0.00,,,0.04,meteohub,2013-08-16 03:48:00,
2013-08-15 20:53:00,67.5,63.1,29.93,West,270,0.0,0.0,86,0.00,,,0.04,meteohub,2013-08-16 03:53:00,
2013-08-15 20:58:00,67.3,63.3,29.93,West,270,0.0,0.0,87,0.00,,,0.04,meteohub,2013-08-16 03:58:00,
2013-08-15 21:01:00,67.1,63.1,29.93,West,270,0.0,0.0,87,0.00,,,0.04,meteohub,2013-08-16 04:01:00,
2013-08-15 21:02:00,67.1,63.1,29.93,West,270,0.0,0.0,87,0.00,,,0.04,meteohub,2013-08-16 04:02:00,
2013-08-15 21:07:00,66.7,62.8,29.93,West,270,0.0,0.0,87,0.00,,,0.04,meteohub,2013-08-16 04:07:00,
2013-08-15 21:13:00,66.6,63.0,29.94,West,270,0.0,0.0,88,0.00,,,0.04,meteohub,2013-08-16 04:13:00,
2013-08-15 21:18:00,66.4,62.8,29.93,West,270,0.0,0.0,88,0.00,,,0.04,meteohub,2013-08-16 04:18:00,
2013-08-15 21:23:00,66.2,62.6,29.93,West,270,0.0,0.0,88,0.00,,,0.04,meteohub,2013-08-16 04:23:00,
2013-08-15 21:28:00,66.0,62.6,29.93,West,270,0.0,0.0,89,0.00,,,0.04,meteohub,2013-08-16 04:28:00,
2013-08-15 21:33:00,66.0,62.6,29.94,West,270,0.0,0.0,89,0.00,,,0.04,meteohub,2013-08-16 04:33:00,
2013-08-15 21:38:00,65.8,62.8,29.94,West,270,0.0,0.0,90,0.00,,,0.04,meteohub,2013-08-16 04:38:00,
2013-08-15 21:43:00,65.7,62.6,29.94,NE,45,0.0,0.0,90,0.00,,,0.04,meteohub,2013-08-16 04:43:00,
2013-08-15 21:48:00,65.7,62.6,29.94,NE,45,0.0,0.0,90,0.00,,,0.04,meteohub,2013-08-16 04:48:00,
2013-08-15 21:53:00,65.3,62.2,29.94,NE,45,0.0,0.0,90,0.00,,,0.04,meteohub,2013-08-16 04:53:00,
2013-08-15 21:58:00,65.1,62.1,29.94,NE,45,0.0,0.0,90,0.00,,,0.04,meteohub,2013-08-16 04:58:00,
2013-08-15 22:03:00,64.9,62.2,29.95,NE,45,0.0,0.0,91,0.00,,,0.04,meteohub,2013-08-16 05:03:00,
2013-08-15 22:08:00,64.8,62.1,29.95,NE,45,0.0,0.0,91,0.00,,,0.04,meteohub,2013-08-16 05:08:00,
2013-08-15 22:13:00,64.8,62.4,29.95,NE,45,0.0,0.0,92,0.00,,,0.04,meteohub,2013-08-16 05:13:00,
2013-08-15 22:20:00,64.6,62.2,29.95,NE,45,0.0,0.0,92,0.00,,,0.04,meteohub,2013-08-16 05:20:00,
2013-08-15 22:25:00,64.4,62.1,29.95,NE,45,0.0,0.0,92,0.00,,,0.04,meteohub,2013-08-16 05:25:00,
2013-08-15 22:30:00,64.4,62.1,29.94,NE,45,0.0,0.0,92,0.00,,,0.04,meteohub,2013-08-16 05:30:00,
2013-08-15 22:35:00,64.2,61.9,29.95,NE,45,0.0,0.0,92,0.00,,,0.04,meteohub,2013-08-16 05:35:00,
2013-08-15 22:40:00,64.0,61.7,29.94,NE,45,0.0,0.0,92,0.00,,,0.04,meteohub,2013-08-16 05:40:00,
2013-08-15 22:45:00,63.9,61.5,29.95,NE,45,0.0,0.0,92,0.00,,,0.04,meteohub,2013-08-16 05:45:00,
2013-08-15 22:50:00,63.7,61.3,29.94,NE,45,0.0,0.0,92,0.00,,,0.04,meteohub,2013-08-16 05:50:00,
2013-08-15 22:55:00,63.7,61.3,29.95,NE,45,0.0,0.0,92,0.00,,,0.04,meteohub,2013-08-16 05:55:00,
2013-08-15 23:00:00,63.5,61.5,29.95,NE,45,0.0,0.0,93,0.00,,,0.04,meteohub,2013-08-16 06:00:00,
2013-08-15 23:05:00,63.3,61.3,29.94,NE,45,0.0,0.0,93,0.00,,,0.04,meteohub,2013-08-16 06:05:00,
2013-08-15 23:10:00,63.3,61.3,29.94,NE,45,0.0,0.0,93,0.00,,,0.04,meteohub,2013-08-16 06:10:00,
2013-08-15 23:15:00,63.1,61.2,29.94,NE,45,0.0,0.0,93,0.00,,,0.04,meteohub,2013-08-16 06:15:00,
2013-08-15 23:20:00,63.0,61.0,29.94,NE,45,0.0,0.0,93,0.00,,,0.04,meteohub,2013-08-16 06:20:00,
2013-08-15 23:25:00,62.8,60.8,29.94,NE,45,0.0,0.0,93,0.00,,,0.04,meteohub,2013-08-16 06:25:00,
2013-08-15 23:30:00,63.0,61.0,29.95,North,0,0.0,0.0,93,0.00,,,0.04,meteohub,2013-08-16 06:30:00,
2013-08-15 23:36:00,62.8,60.8,29.94,North,0,0.0,1.0,93,0.00,,,0.04,meteohub,2013-08-16 06:36:00,
2013-08-15 23:41:00,62.8,61.0,29.94,North,0,0.0,1.0,94,0.00,,,0.04,meteohub,2013-08-16 06:41:00,
2013-08-15 23:46:00,62.4,60.6,29.94,North,0,0.0,1.0,94,0.00,,,0.04,meteohub,2013-08-16 06:46:00,
2013-08-15 23:51:00,62.4,60.6,29.94,North,0,0.0,0.0,94,0.00,,,0.04,meteohub,2013-08-16 06:51:00,
2013-08-15 23:56:00,62.2,60.4,29.94,North,0,0.0,0.0,94,0.00,,,0.04,meteohub,2013-08-16 06:56:00,